sensor_id;sensor_type;location;lat;lon;timestamp;temperature;humidity
7654;DHT22;3869;48.406;10.774;2023-06-14T00:00:37;13.40;85.20
7654;DHT22;3869;48.406;10.774;2023-06-14T00:03:07;13.30;85.10
7654;DHT22;3869;48.406;10.774;2023-06-14T00:05:37;13.40;85.80
7654;DHT22;3869;48.406;10.774;2023-06-14T00:08:09;13.60;85.90
7654;DHT22;3869;48.406;10.774;2023-06-14T00:10:38;13.70;85.50
7654;DHT22;3869;48.406;10.774;2023-06-14T00:13:10;13.60;85.30
7654;DHT22;3869;48.406;10.774;2023-06-14T00:15:38;13.60;85.40
7654;DHT22;3869;48.406;10.774;2023-06-14T00:18:06;13.40;85.50
7654;DHT22;3869;48.406;10.774;2023-06-14T00:20:36;13.40;85.90
7654;DHT22;3869;48.406;10.774;2023-06-14T00:23:04;13.40;86.10
7654;DHT22;3869;48.406;10.774;2023-06-14T00:25:32;13.30;85.80
7654;DHT22;3869;48.406;10.774;2023-06-14T00:28:01;13.10;85.70
7654;DHT22;3869;48.406;10.774;2023-06-14T00:30:30;13.10;86.20
7654;DHT22;3869;48.406;10.774;2023-06-14T00:32:58;13.10;86.20
7654;DHT22;3869;48.406;10.774;2023-06-14T00:35:26;13.00;86.40
7654;DHT22;3869;48.406;10.774;2023-06-14T00:37:54;13.00;86.60
7654;DHT22;3869;48.406;10.774;2023-06-14T00:40:22;12.90;86.60
7654;DHT22;3869;48.406;10.774;2023-06-14T00:42:51;12.90;86.80
7654;DHT22;3869;48.406;10.774;2023-06-14T00:45:19;12.90;87.20
7654;DHT22;3869;48.406;10.774;2023-06-14T00:47:49;12.90;87.30
7654;DHT22;3869;48.406;10.774;2023-06-14T00:50:20;12.90;87.40
7654;DHT22;3869;48.406;10.774;2023-06-14T00:52:48;12.90;87.20
7654;DHT22;3869;48.406;10.774;2023-06-14T00:55:16;12.80;87.40
7654;DHT22;3869;48.406;10.774;2023-06-14T00:57:44;12.80;87.70
7654;DHT22;3869;48.406;10.774;2023-06-14T01:00:13;12.70;87.90
7654;DHT22;3869;48.406;10.774;2023-06-14T01:02:42;12.70;88.00
7654;DHT22;3869;48.406;10.774;2023-06-14T01:05:11;12.70;87.90
7654;DHT22;3869;48.406;10.774;2023-06-14T01:07:58;12.70;88.10
7654;DHT22;3869;48.406;10.774;2023-06-14T01:10:36;12.70;88.00
7654;DHT22;3869;48.406;10.774;2023-06-14T01:13:10;12.60;88.20
7654;DHT22;3869;48.406;10.774;2023-06-14T01:15:41;12.60;88.30
7654;DHT22;3869;48.406;10.774;2023-06-14T01:18:10;12.50;88.00
7654;DHT22;3869;48.406;10.774;2023-06-14T01:20:47;12.50;88.30
7654;DHT22;3869;48.406;10.774;2023-06-14T01:23:19;12.40;88.40
7654;DHT22;3869;48.406;10.774;2023-06-14T01:25:47;12.50;88.80
7654;DHT22;3869;48.406;10.774;2023-06-14T01:28:20;12.40;88.70
7654;DHT22;3869;48.406;10.774;2023-06-14T01:30:51;12.40;88.90
7654;DHT22;3869;48.406;10.774;2023-06-14T01:33:21;12.30;89.10
7654;DHT22;3869;48.406;10.774;2023-06-14T01:35:51;12.40;89.40
7654;DHT22;3869;48.406;10.774;2023-06-14T01:38:22;12.30;89.00
7654;DHT22;3869;48.406;10.774;2023-06-14T01:40:52;12.20;88.80
7654;DHT22;3869;48.406;10.774;2023-06-14T01:43:21;12.10;88.90
7654;DHT22;3869;48.406;10.774;2023-06-14T01:45:51;12.10;89.40
7654;DHT22;3869;48.406;10.774;2023-06-14T01:48:20;12.10;89.50
7654;DHT22;3869;48.406;10.774;2023-06-14T01:50:48;12.00;89.90
7654;DHT22;3869;48.406;10.774;2023-06-14T01:53:17;12.10;90.00
7654;DHT22;3869;48.406;10.774;2023-06-14T01:55:46;12.20;90.10
7654;DHT22;3869;48.406;10.774;2023-06-14T01:58:15;12.20;90.10
7654;DHT22;3869;48.406;10.774;2023-06-14T02:00:44;12.20;90.00
7654;DHT22;3869;48.406;10.774;2023-06-14T02:03:14;12.20;90.10
7654;DHT22;3869;48.406;10.774;2023-06-14T02:05:42;12.20;90.10
7654;DHT22;3869;48.406;10.774;2023-06-14T02:08:10;12.20;90.10
7654;DHT22;3869;48.406;10.774;2023-06-14T02:10:38;12.10;90.00
7654;DHT22;3869;48.406;10.774;2023-06-14T02:13:07;12.10;90.20
7654;DHT22;3869;48.406;10.774;2023-06-14T02:15:35;12.10;90.40
7654;DHT22;3869;48.406;10.774;2023-06-14T02:18:04;12.00;90.10
7654;DHT22;3869;48.406;10.774;2023-06-14T02:20:32;12.00;90.20
7654;DHT22;3869;48.406;10.774;2023-06-14T02:23:00;12.00;90.20
7654;DHT22;3869;48.406;10.774;2023-06-14T02:25:28;11.90;90.20
7654;DHT22;3869;48.406;10.774;2023-06-14T02:27:56;11.90;90.40
7654;DHT22;3869;48.406;10.774;2023-06-14T02:30:26;11.90;90.40
7654;DHT22;3869;48.406;10.774;2023-06-14T02:32:54;11.80;90.40
7654;DHT22;3869;48.406;10.774;2023-06-14T02:35:22;11.90;90.50
7654;DHT22;3869;48.406;10.774;2023-06-14T02:37:53;11.80;90.40
7654;DHT22;3869;48.406;10.774;2023-06-14T02:40:21;11.80;90.50
7654;DHT22;3869;48.406;10.774;2023-06-14T02:42:49;11.80;90.40
7654;DHT22;3869;48.406;10.774;2023-06-14T02:45:17;11.70;90.40
7654;DHT22;3869;48.406;10.774;2023-06-14T02:47:47;11.70;90.50
7654;DHT22;3869;48.406;10.774;2023-06-14T02:50:15;11.70;90.40
7654;DHT22;3869;48.406;10.774;2023-06-14T02:52:43;11.70;90.50
7654;DHT22;3869;48.406;10.774;2023-06-14T02:55:12;11.60;90.50
7654;DHT22;3869;48.406;10.774;2023-06-14T02:57:40;11.60;90.60
7654;DHT22;3869;48.406;10.774;2023-06-14T03:00:09;11.50;90.60
7654;DHT22;3869;48.406;10.774;2023-06-14T03:02:41;11.60;90.80
7654;DHT22;3869;48.406;10.774;2023-06-14T03:05:11;11.60;90.70
7654;DHT22;3869;48.406;10.774;2023-06-14T03:07:39;11.50;90.70
7654;DHT22;3869;48.406;10.774;2023-06-14T03:10:08;11.50;90.70
7654;DHT22;3869;48.406;10.774;2023-06-14T03:12:36;11.40;90.70
7654;DHT22;3869;48.406;10.774;2023-06-14T03:15:05;11.30;90.70
7654;DHT22;3869;48.406;10.774;2023-06-14T03:17:33;11.30;90.80
7654;DHT22;3869;48.406;10.774;2023-06-14T03:20:02;11.30;90.90
7654;DHT22;3869;48.406;10.774;2023-06-14T03:22:33;11.30;90.90
7654;DHT22;3869;48.406;10.774;2023-06-14T03:25:01;11.30;90.90
7654;DHT22;3869;48.406;10.774;2023-06-14T03:27:31;11.40;91.00
7654;DHT22;3869;48.406;10.774;2023-06-14T03:29:59;11.40;90.90
7654;DHT22;3869;48.406;10.774;2023-06-14T03:32:27;11.30;91.00
7654;DHT22;3869;48.406;10.774;2023-06-14T03:34:55;11.20;90.90
7654;DHT22;3869;48.406;10.774;2023-06-14T03:37:23;11.10;91.00
7654;DHT22;3869;48.406;10.774;2023-06-14T03:39:52;11.20;91.40
7654;DHT22;3869;48.406;10.774;2023-06-14T03:42:21;11.20;91.30
7654;DHT22;3869;48.406;10.774;2023-06-14T03:44:49;11.30;91.20
7654;DHT22;3869;48.406;10.774;2023-06-14T03:47:17;11.20;91.10
7654;DHT22;3869;48.406;10.774;2023-06-14T03:49:45;11.10;91.10
7654;DHT22;3869;48.406;10.774;2023-06-14T03:52:13;11.10;91.30
7654;DHT22;3869;48.406;10.774;2023-06-14T03:54:43;11.10;91.40
7654;DHT22;3869;48.406;10.774;2023-06-14T03:57:15;11.00;91.40
7654;DHT22;3869;48.406;10.774;2023-06-14T03:59:43;11.00;91.50
7654;DHT22;3869;48.406;10.774;2023-06-14T04:02:12;11.00;91.70
7654;DHT22;3869;48.406;10.774;2023-06-14T04:04:42;11.00;91.70
7654;DHT22;3869;48.406;10.774;2023-06-14T04:07:10;11.00;91.80
7654;DHT22;3869;48.406;10.774;2023-06-14T04:09:38;11.10;91.90
7654;DHT22;3869;48.406;10.774;2023-06-14T04:12:08;11.10;91.90
7654;DHT22;3869;48.406;10.774;2023-06-14T04:14:39;11.10;91.90
7654;DHT22;3869;48.406;10.774;2023-06-14T04:17:07;11.10;91.90
7654;DHT22;3869;48.406;10.774;2023-06-14T04:19:35;11.20;91.90
7654;DHT22;3869;48.406;10.774;2023-06-14T04:22:04;11.20;92.00
7654;DHT22;3869;48.406;10.774;2023-06-14T04:24:32;11.30;92.20
7654;DHT22;3869;48.406;10.774;2023-06-14T04:27:01;11.40;92.50
7654;DHT22;3869;48.406;10.774;2023-06-14T04:29:29;11.50;92.60
7654;DHT22;3869;48.406;10.774;2023-06-14T04:31:59;11.50;92.60
7654;DHT22;3869;48.406;10.774;2023-06-14T04:34:28;11.60;92.60
7654;DHT22;3869;48.406;10.774;2023-06-14T04:37:00;11.60;92.50
7654;DHT22;3869;48.406;10.774;2023-06-14T04:39:28;11.50;92.40
7654;DHT22;3869;48.406;10.774;2023-06-14T04:41:56;11.50;92.60
7654;DHT22;3869;48.406;10.774;2023-06-14T04:44:27;11.60;92.70
7654;DHT22;3869;48.406;10.774;2023-06-14T04:47:00;11.60;92.80
7654;DHT22;3869;48.406;10.774;2023-06-14T04:49:28;11.70;93.20
7654;DHT22;3869;48.406;10.774;2023-06-14T04:51:59;11.80;93.40
7654;DHT22;3869;48.406;10.774;2023-06-14T04:54:29;11.90;93.50
7654;DHT22;3869;48.406;10.774;2023-06-14T04:57:00;12.00;93.60
7654;DHT22;3869;48.406;10.774;2023-06-14T04:59:29;12.10;93.60
7654;DHT22;3869;48.406;10.774;2023-06-14T05:02:01;12.20;93.80
7654;DHT22;3869;48.406;10.774;2023-06-14T05:04:29;12.30;93.70
7654;DHT22;3869;48.406;10.774;2023-06-14T05:06:57;12.40;93.90
7654;DHT22;3869;48.406;10.774;2023-06-14T05:09:25;12.60;94.20
7654;DHT22;3869;48.406;10.774;2023-06-14T05:11:53;12.70;94.20
7654;DHT22;3869;48.406;10.774;2023-06-14T05:14:21;12.80;94.30
7654;DHT22;3869;48.406;10.774;2023-06-14T05:16:49;12.90;94.60
7654;DHT22;3869;48.406;10.774;2023-06-14T05:19:18;13.00;94.60
7654;DHT22;3869;48.406;10.774;2023-06-14T05:21:47;13.20;94.60
7654;DHT22;3869;48.406;10.774;2023-06-14T05:24:15;13.20;94.20
7654;DHT22;3869;48.406;10.774;2023-06-14T05:26:44;13.20;93.80
7654;DHT22;3869;48.406;10.774;2023-06-14T05:29:13;13.30;93.40
7654;DHT22;3869;48.406;10.774;2023-06-14T05:31:41;13.40;93.40
7654;DHT22;3869;48.406;10.774;2023-06-14T05:34:09;13.60;93.60
7654;DHT22;3869;48.406;10.774;2023-06-14T05:36:38;13.80;93.80
7654;DHT22;3869;48.406;10.774;2023-06-14T05:39:07;13.90;93.20
7654;DHT22;3869;48.406;10.774;2023-06-14T05:41:35;14.00;92.70
7654;DHT22;3869;48.406;10.774;2023-06-14T05:44:03;14.10;92.20
7654;DHT22;3869;48.406;10.774;2023-06-14T05:46:31;14.30;91.80
7654;DHT22;3869;48.406;10.774;2023-06-14T05:48:59;14.40;91.40
7654;DHT22;3869;48.406;10.774;2023-06-14T05:51:27;14.50;90.90
7654;DHT22;3869;48.406;10.774;2023-06-14T05:53:57;14.60;90.90
7654;DHT22;3869;48.406;10.774;2023-06-14T05:56:25;14.70;91.20
7654;DHT22;3869;48.406;10.774;2023-06-14T05:58:53;15.00;90.80
7654;DHT22;3869;48.406;10.774;2023-06-14T06:01:21;15.00;90.80
7654;DHT22;3869;48.406;10.774;2023-06-14T06:03:49;15.10;90.40
7654;DHT22;3869;48.406;10.774;2023-06-14T06:06:17;15.20;90.20
7654;DHT22;3869;48.406;10.774;2023-06-14T06:08:45;15.30;90.10
7654;DHT22;3869;48.406;10.774;2023-06-14T06:11:15;15.40;90.00
7654;DHT22;3869;48.406;10.774;2023-06-14T06:13:43;15.50;89.80
7654;DHT22;3869;48.406;10.774;2023-06-14T06:16:11;15.60;90.00
7654;DHT22;3869;48.406;10.774;2023-06-14T06:18:39;15.70;90.00
7654;DHT22;3869;48.406;10.774;2023-06-14T06:21:09;15.80;90.00
7654;DHT22;3869;48.406;10.774;2023-06-14T06:23:37;15.90;89.90
7654;DHT22;3869;48.406;10.774;2023-06-14T06:26:05;16.10;90.00
7654;DHT22;3869;48.406;10.774;2023-06-14T06:28:34;16.20;89.80
7654;DHT22;3869;48.406;10.774;2023-06-14T06:31:02;16.30;89.60
7654;DHT22;3869;48.406;10.774;2023-06-14T06:33:31;16.40;88.80
7654;DHT22;3869;48.406;10.774;2023-06-14T06:35:59;16.40;87.90
7654;DHT22;3869;48.406;10.774;2023-06-14T06:38:27;16.40;88.30
7654;DHT22;3869;48.406;10.774;2023-06-14T06:40:54;16.50;88.30
7654;DHT22;3869;48.406;10.774;2023-06-14T06:43:23;16.60;87.80
7654;DHT22;3869;48.406;10.774;2023-06-14T06:45:53;16.70;89.10
7654;DHT22;3869;48.406;10.774;2023-06-14T06:48:21;16.80;87.90
7654;DHT22;3869;48.406;10.774;2023-06-14T06:50:48;16.80;87.70
7654;DHT22;3869;48.406;10.774;2023-06-14T06:53:18;16.90;88.00
7654;DHT22;3869;48.406;10.774;2023-06-14T06:55:56;17.00;87.90
7654;DHT22;3869;48.406;10.774;2023-06-14T06:58:24;17.10;88.20
7654;DHT22;3869;48.406;10.774;2023-06-14T07:00:54;17.20;88.60
7654;DHT22;3869;48.406;10.774;2023-06-14T07:03:22;17.30;88.20
7654;DHT22;3869;48.406;10.774;2023-06-14T07:05:50;17.40;87.50
7654;DHT22;3869;48.406;10.774;2023-06-14T07:08:18;17.50;86.90
7654;DHT22;3869;48.406;10.774;2023-06-14T07:10:46;17.60;86.80
7654;DHT22;3869;48.406;10.774;2023-06-14T07:13:14;17.70;85.90
7654;DHT22;3869;48.406;10.774;2023-06-14T07:15:43;17.80;86.20
7654;DHT22;3869;48.406;10.774;2023-06-14T07:18:12;17.90;85.30
7654;DHT22;3869;48.406;10.774;2023-06-14T07:20:42;18.00;84.80
7654;DHT22;3869;48.406;10.774;2023-06-14T07:23:10;18.10;84.90
7654;DHT22;3869;48.406;10.774;2023-06-14T07:25:38;18.20;84.40
7654;DHT22;3869;48.406;10.774;2023-06-14T07:28:06;18.20;84.70
7654;DHT22;3869;48.406;10.774;2023-06-14T07:30:35;18.30;84.20
7654;DHT22;3869;48.406;10.774;2023-06-14T07:33:03;18.30;83.90
7654;DHT22;3869;48.406;10.774;2023-06-14T07:35:32;18.40;84.60
7654;DHT22;3869;48.406;10.774;2023-06-14T07:38:00;18.40;84.70
7654;DHT22;3869;48.406;10.774;2023-06-14T07:40:28;18.50;83.90
7654;DHT22;3869;48.406;10.774;2023-06-14T07:42:56;18.50;83.00
7654;DHT22;3869;48.406;10.774;2023-06-14T07:45:24;18.50;83.80
7654;DHT22;3869;48.406;10.774;2023-06-14T07:47:52;18.60;83.80
7654;DHT22;3869;48.406;10.774;2023-06-14T07:50:21;18.70;83.70
7654;DHT22;3869;48.406;10.774;2023-06-14T07:52:50;18.70;83.60
7654;DHT22;3869;48.406;10.774;2023-06-14T07:55:18;18.80;84.40
7654;DHT22;3869;48.406;10.774;2023-06-14T07:57:46;18.80;84.70
7654;DHT22;3869;48.406;10.774;2023-06-14T08:00:15;18.90;84.10
7654;DHT22;3869;48.406;10.774;2023-06-14T08:02:45;18.90;83.60
7654;DHT22;3869;48.406;10.774;2023-06-14T08:05:13;18.90;82.40
7654;DHT22;3869;48.406;10.774;2023-06-14T08:07:42;18.90;81.20
7654;DHT22;3869;48.406;10.774;2023-06-14T08:10:11;19.00;80.40
7654;DHT22;3869;48.406;10.774;2023-06-14T08:12:40;19.00;80.80
7654;DHT22;3869;48.406;10.774;2023-06-14T08:15:08;19.10;79.70
7654;DHT22;3869;48.406;10.774;2023-06-14T08:17:41;19.10;80.30
7654;DHT22;3869;48.406;10.774;2023-06-14T08:20:10;19.10;80.70
7654;DHT22;3869;48.406;10.774;2023-06-14T08:22:39;19.30;80.90
7654;DHT22;3869;48.406;10.774;2023-06-14T08:25:10;19.40;79.80
7654;DHT22;3869;48.406;10.774;2023-06-14T08:27:39;19.50;80.20
7654;DHT22;3869;48.406;10.774;2023-06-14T08:30:09;19.60;80.50
7654;DHT22;3869;48.406;10.774;2023-06-14T08:32:37;19.60;79.80
7654;DHT22;3869;48.406;10.774;2023-06-14T08:35:05;19.70;80.10
7654;DHT22;3869;48.406;10.774;2023-06-14T08:37:38;19.70;79.20
7654;DHT22;3869;48.406;10.774;2023-06-14T08:40:17;19.60;79.90
7654;DHT22;3869;48.406;10.774;2023-06-14T08:42:47;19.60;79.30
7654;DHT22;3869;48.406;10.774;2023-06-14T08:45:15;19.60;79.20
7654;DHT22;3869;48.406;10.774;2023-06-14T08:47:44;19.70;80.20
7654;DHT22;3869;48.406;10.774;2023-06-14T08:50:13;19.80;79.80
7654;DHT22;3869;48.406;10.774;2023-06-14T08:52:58;19.80;80.00
7654;DHT22;3869;48.406;10.774;2023-06-14T08:55:30;19.90;79.50
7654;DHT22;3869;48.406;10.774;2023-06-14T08:58:03;20.00;79.90
7654;DHT22;3869;48.406;10.774;2023-06-14T09:00:32;20.10;80.00
7654;DHT22;3869;48.406;10.774;2023-06-14T09:03:01;20.20;79.80
7654;DHT22;3869;48.406;10.774;2023-06-14T09:05:30;20.20;80.30
7654;DHT22;3869;48.406;10.774;2023-06-14T09:07:58;20.30;78.90
7654;DHT22;3869;48.406;10.774;2023-06-14T09:10:33;20.30;79.40
7654;DHT22;3869;48.406;10.774;2023-06-14T09:13:05;20.40;78.40
7654;DHT22;3869;48.406;10.774;2023-06-14T09:15:34;20.50;79.10
7654;DHT22;3869;48.406;10.774;2023-06-14T09:18:03;20.50;77.90
7654;DHT22;3869;48.406;10.774;2023-06-14T09:20:32;20.50;78.00
7654;DHT22;3869;48.406;10.774;2023-06-14T09:23:01;20.60;78.80
7654;DHT22;3869;48.406;10.774;2023-06-14T09:25:41;20.70;78.60
7654;DHT22;3869;48.406;10.774;2023-06-14T09:28:09;20.70;77.50
7654;DHT22;3869;48.406;10.774;2023-06-14T09:30:38;20.70;76.60
7654;DHT22;3869;48.406;10.774;2023-06-14T09:33:06;20.80;77.30
7654;DHT22;3869;48.406;10.774;2023-06-14T09:35:34;20.80;77.40
7654;DHT22;3869;48.406;10.774;2023-06-14T09:38:03;20.80;77.10
7654;DHT22;3869;48.406;10.774;2023-06-14T09:40:35;20.80;76.80
7654;DHT22;3869;48.406;10.774;2023-06-14T09:43:07;20.90;77.70
7654;DHT22;3869;48.406;10.774;2023-06-14T09:45:37;21.10;77.80
7654;DHT22;3869;48.406;10.774;2023-06-14T09:48:07;21.10;76.00
7654;DHT22;3869;48.406;10.774;2023-06-14T09:50:35;21.10;75.60
7654;DHT22;3869;48.406;10.774;2023-06-14T09:53:06;21.20;75.70
7654;DHT22;3869;48.406;10.774;2023-06-14T09:55:36;21.30;75.20
7654;DHT22;3869;48.406;10.774;2023-06-14T09:58:06;21.30;75.20
7654;DHT22;3869;48.406;10.774;2023-06-14T10:00:36;21.20;74.50
7654;DHT22;3869;48.406;10.774;2023-06-14T10:03:11;21.30;74.30
7654;DHT22;3869;48.406;10.774;2023-06-14T10:05:42;21.30;73.70
7654;DHT22;3869;48.406;10.774;2023-06-14T10:08:14;21.40;74.30
7654;DHT22;3869;48.406;10.774;2023-06-14T10:10:45;21.60;74.80
7654;DHT22;3869;48.406;10.774;2023-06-14T10:13:14;21.60;72.20
7654;DHT22;3869;48.406;10.774;2023-06-14T10:15:50;21.60;71.50
7654;DHT22;3869;48.406;10.774;2023-06-14T10:18:28;21.60;72.30
7654;DHT22;3869;48.406;10.774;2023-06-14T10:21:05;21.70;71.30
7654;DHT22;3869;48.406;10.774;2023-06-14T10:23:40;21.80;72.70
7654;DHT22;3869;48.406;10.774;2023-06-14T10:26:18;21.90;71.10
7654;DHT22;3869;48.406;10.774;2023-06-14T10:28:57;22.00;71.70
7654;DHT22;3869;48.406;10.774;2023-06-14T10:31:40;22.10;70.90
7654;DHT22;3869;48.406;10.774;2023-06-14T10:34:10;22.30;71.40
7654;DHT22;3869;48.406;10.774;2023-06-14T10:36:41;22.50;71.70
7654;DHT22;3869;48.406;10.774;2023-06-14T10:39:14;22.60;69.60
7654;DHT22;3869;48.406;10.774;2023-06-14T10:41:52;22.60;69.10
7654;DHT22;3869;48.406;10.774;2023-06-14T10:44:35;22.60;68.40
7654;DHT22;3869;48.406;10.774;2023-06-14T10:47:10;22.60;69.00
7654;DHT22;3869;48.406;10.774;2023-06-14T10:49:41;22.70;69.70
7654;DHT22;3869;48.406;10.774;2023-06-14T10:52:11;22.70;70.00
7654;DHT22;3869;48.406;10.774;2023-06-14T10:55:02;22.70;68.20
7654;DHT22;3869;48.406;10.774;2023-06-14T10:57:34;22.70;67.10
7654;DHT22;3869;48.406;10.774;2023-06-14T11:00:06;22.80;66.50
7654;DHT22;3869;48.406;10.774;2023-06-14T11:05:49;22.90;65.10
7654;DHT22;3869;48.406;10.774;2023-06-14T11:08:27;22.90;64.90
7654;DHT22;3869;48.406;10.774;2023-06-14T11:11:05;23.00;65.10
7654;DHT22;3869;48.406;10.774;2023-06-14T11:13:38;23.20;65.30
7654;DHT22;3869;48.406;10.774;2023-06-14T11:16:14;23.10;63.70
7654;DHT22;3869;48.406;10.774;2023-06-14T11:18:44;23.20;65.30
7654;DHT22;3869;48.406;10.774;2023-06-14T11:21:16;23.20;66.00
7654;DHT22;3869;48.406;10.774;2023-06-14T11:23:49;23.10;64.70
7654;DHT22;3869;48.406;10.774;2023-06-14T11:26:24;23.10;65.00
7654;DHT22;3869;48.406;10.774;2023-06-14T11:28:59;23.10;63.10
7654;DHT22;3869;48.406;10.774;2023-06-14T11:31:28;23.10;63.40
7654;DHT22;3869;48.406;10.774;2023-06-14T11:33:58;23.20;63.60
7654;DHT22;3869;48.406;10.774;2023-06-14T11:36:26;23.20;63.10
7654;DHT22;3869;48.406;10.774;2023-06-14T11:39:00;23.20;62.20
7654;DHT22;3869;48.406;10.774;2023-06-14T11:41:34;23.10;62.10
7654;DHT22;3869;48.406;10.774;2023-06-14T11:44:04;23.00;62.30
7654;DHT22;3869;48.406;10.774;2023-06-14T11:46:32;22.80;63.30
7654;DHT22;3869;48.406;10.774;2023-06-14T11:49:01;22.80;64.30
7654;DHT22;3869;48.406;10.774;2023-06-14T11:51:32;22.80;63.50
7654;DHT22;3869;48.406;10.774;2023-06-14T11:54:01;22.90;64.00
7654;DHT22;3869;48.406;10.774;2023-06-14T11:56:30;23.00;64.40
7654;DHT22;3869;48.406;10.774;2023-06-14T11:58:59;23.20;64.20
7654;DHT22;3869;48.406;10.774;2023-06-14T12:01:29;23.30;63.70
7654;DHT22;3869;48.406;10.774;2023-06-14T12:03:59;23.30;62.50
7654;DHT22;3869;48.406;10.774;2023-06-14T12:06:29;23.50;62.90
7654;DHT22;3869;48.406;10.774;2023-06-14T12:09:00;23.60;62.70
7654;DHT22;3869;48.406;10.774;2023-06-14T12:11:33;23.60;62.90
7654;DHT22;3869;48.406;10.774;2023-06-14T12:14:03;23.80;62.80
7654;DHT22;3869;48.406;10.774;2023-06-14T12:16:34;23.80;60.40
7654;DHT22;3869;48.406;10.774;2023-06-14T12:19:11;23.90;61.10
7654;DHT22;3869;48.406;10.774;2023-06-14T12:21:40;24.00;61.70
7654;DHT22;3869;48.406;10.774;2023-06-14T12:24:08;24.10;61.10
7654;DHT22;3869;48.406;10.774;2023-06-14T12:26:40;24.20;60.90
7654;DHT22;3869;48.406;10.774;2023-06-14T12:29:09;24.30;62.00
7654;DHT22;3869;48.406;10.774;2023-06-14T12:31:41;24.30;60.60
7654;DHT22;3869;48.406;10.774;2023-06-14T12:34:09;24.30;59.70
7654;DHT22;3869;48.406;10.774;2023-06-14T12:36:38;24.30;60.20
7654;DHT22;3869;48.406;10.774;2023-06-14T12:39:11;24.30;60.00
7654;DHT22;3869;48.406;10.774;2023-06-14T12:41:39;24.30;59.90
7654;DHT22;3869;48.406;10.774;2023-06-14T12:44:08;24.20;60.00
7654;DHT22;3869;48.406;10.774;2023-06-14T12:46:36;24.20;59.70
7654;DHT22;3869;48.406;10.774;2023-06-14T12:49:09;23.90;59.20
7654;DHT22;3869;48.406;10.774;2023-06-14T12:51:37;23.60;59.20
7654;DHT22;3869;48.406;10.774;2023-06-14T12:54:05;23.60;60.30
7654;DHT22;3869;48.406;10.774;2023-06-14T12:56:34;23.60;60.80
7654;DHT22;3869;48.406;10.774;2023-06-14T12:59:02;23.70;60.70
7654;DHT22;3869;48.406;10.774;2023-06-14T13:01:30;23.90;60.70
7654;DHT22;3869;48.406;10.774;2023-06-14T13:03:58;24.00;61.50
7654;DHT22;3869;48.406;10.774;2023-06-14T13:06:27;24.10;60.70
7654;DHT22;3869;48.406;10.774;2023-06-14T13:08:57;24.30;62.40
7654;DHT22;3869;48.406;10.774;2023-06-14T13:11:26;24.30;59.70
7654;DHT22;3869;48.406;10.774;2023-06-14T13:13:54;24.40;59.80
7654;DHT22;3869;48.406;10.774;2023-06-14T13:16:22;24.40;59.30
7654;DHT22;3869;48.406;10.774;2023-06-14T13:18:50;24.50;59.70
7654;DHT22;3869;48.406;10.774;2023-06-14T13:21:18;24.50;58.40
7654;DHT22;3869;48.406;10.774;2023-06-14T13:23:48;24.60;58.90
7654;DHT22;3869;48.406;10.774;2023-06-14T13:26:16;24.70;59.90
7654;DHT22;3869;48.406;10.774;2023-06-14T13:28:45;24.90;61.70
7654;DHT22;3869;48.406;10.774;2023-06-14T13:31:13;25.10;60.90
7654;DHT22;3869;48.406;10.774;2023-06-14T13:33:41;25.30;59.70
7654;DHT22;3869;48.406;10.774;2023-06-14T13:36:09;25.30;58.00
7654;DHT22;3869;48.406;10.774;2023-06-14T13:38:37;25.30;58.00
7654;DHT22;3869;48.406;10.774;2023-06-14T13:41:08;25.30;57.60
7654;DHT22;3869;48.406;10.774;2023-06-14T13:43:36;25.10;55.90
7654;DHT22;3869;48.406;10.774;2023-06-14T13:46:04;24.80;56.50
7654;DHT22;3869;48.406;10.774;2023-06-14T13:48:32;24.50;56.60
7654;DHT22;3869;48.406;10.774;2023-06-14T13:51:00;24.30;57.50
7654;DHT22;3869;48.406;10.774;2023-06-14T13:53:30;24.20;57.90
7654;DHT22;3869;48.406;10.774;2023-06-14T13:55:58;24.30;59.20
7654;DHT22;3869;48.406;10.774;2023-06-14T13:58:28;24.20;59.50
7654;DHT22;3869;48.406;10.774;2023-06-14T14:00:56;24.10;59.90
7654;DHT22;3869;48.406;10.774;2023-06-14T14:03:26;24.20;61.10
7654;DHT22;3869;48.406;10.774;2023-06-14T14:05:54;24.20;59.80
7654;DHT22;3869;48.406;10.774;2023-06-14T14:08:23;24.30;60.20
7654;DHT22;3869;48.406;10.774;2023-06-14T14:10:51;24.40;60.40
7654;DHT22;3869;48.406;10.774;2023-06-14T14:13:19;24.50;59.50
7654;DHT22;3869;48.406;10.774;2023-06-14T14:15:49;24.60;59.80
7654;DHT22;3869;48.406;10.774;2023-06-14T14:18:18;24.60;59.10
7654;DHT22;3869;48.406;10.774;2023-06-14T14:20:47;24.60;58.40
7654;DHT22;3869;48.406;10.774;2023-06-14T14:23:15;24.70;58.20
7654;DHT22;3869;48.406;10.774;2023-06-14T14:25:44;24.50;58.90
7654;DHT22;3869;48.406;10.774;2023-06-14T14:28:12;24.50;59.80
7654;DHT22;3869;48.406;10.774;2023-06-14T14:30:42;24.30;59.30
7654;DHT22;3869;48.406;10.774;2023-06-14T14:33:12;24.10;59.90
7654;DHT22;3869;48.406;10.774;2023-06-14T14:35:42;24.10;60.70
7654;DHT22;3869;48.406;10.774;2023-06-14T14:38:12;24.00;59.50
7654;DHT22;3869;48.406;10.774;2023-06-14T14:40:40;23.90;59.90
7654;DHT22;3869;48.406;10.774;2023-06-14T14:43:08;23.80;58.40
7654;DHT22;3869;48.406;10.774;2023-06-14T14:45:37;23.80;59.30
7654;DHT22;3869;48.406;10.774;2023-06-14T14:48:05;23.70;59.90
7654;DHT22;3869;48.406;10.774;2023-06-14T14:50:35;23.70;59.80
7654;DHT22;3869;48.406;10.774;2023-06-14T14:53:03;23.60;61.10
7654;DHT22;3869;48.406;10.774;2023-06-14T14:55:31;23.60;61.30
7654;DHT22;3869;48.406;10.774;2023-06-14T14:58:01;23.60;61.00
7654;DHT22;3869;48.406;10.774;2023-06-14T15:00:29;23.50;58.90
7654;DHT22;3869;48.406;10.774;2023-06-14T15:02:57;23.50;58.60
7654;DHT22;3869;48.406;10.774;2023-06-14T15:05:25;23.40;59.30
7654;DHT22;3869;48.406;10.774;2023-06-14T15:07:55;23.50;59.70
7654;DHT22;3869;48.406;10.774;2023-06-14T15:10:23;23.60;60.30
7654;DHT22;3869;48.406;10.774;2023-06-14T15:12:51;23.60;59.90
7654;DHT22;3869;48.406;10.774;2023-06-14T15:15:19;23.60;61.30
7654;DHT22;3869;48.406;10.774;2023-06-14T15:17:47;23.70;60.70
7654;DHT22;3869;48.406;10.774;2023-06-14T15:20:15;23.70;60.40
7654;DHT22;3869;48.406;10.774;2023-06-14T15:22:43;23.80;61.00
7654;DHT22;3869;48.406;10.774;2023-06-14T15:25:15;23.70;59.20
7654;DHT22;3869;48.406;10.774;2023-06-14T15:27:43;23.70;58.80
7654;DHT22;3869;48.406;10.774;2023-06-14T15:30:12;23.60;58.80
7654;DHT22;3869;48.406;10.774;2023-06-14T15:32:41;23.60;58.90
7654;DHT22;3869;48.406;10.774;2023-06-14T15:35:09;23.60;59.70
7654;DHT22;3869;48.406;10.774;2023-06-14T15:37:38;23.50;60.00
7654;DHT22;3869;48.406;10.774;2023-06-14T15:40:07;23.50;60.60
7654;DHT22;3869;48.406;10.774;2023-06-14T15:42:37;23.40;60.50
7654;DHT22;3869;48.406;10.774;2023-06-14T15:45:05;23.30;60.60
7654;DHT22;3869;48.406;10.774;2023-06-14T15:47:34;23.30;60.20
7654;DHT22;3869;48.406;10.774;2023-06-14T15:50:02;23.30;60.70
7654;DHT22;3869;48.406;10.774;2023-06-14T15:52:31;23.30;60.50
7654;DHT22;3869;48.406;10.774;2023-06-14T15:54:59;23.30;61.10
7654;DHT22;3869;48.406;10.774;2023-06-14T15:57:28;23.20;61.80
7654;DHT22;3869;48.406;10.774;2023-06-14T15:59:57;23.20;61.80
7654;DHT22;3869;48.406;10.774;2023-06-14T16:02:25;23.10;61.90